createdAt,value
2023-04-21T00:02:16.331Z,99821.47
2023-04-21T00:04:47.389Z,99808.94
2023-04-21T00:07:16.217Z,99763.59
2023-04-21T00:09:44.078Z,99786.91
2023-04-21T00:12:12.197Z,99817.25
2023-04-21T00:14:40.243Z,99815.66
2023-04-21T00:17:07.902Z,99731.44
2023-04-21T00:19:36.046Z,99815.31
2023-04-21T00:22:04.752Z,99808.53
2023-04-21T00:24:33.509Z,99825.09
2023-04-21T00:27:04.226Z,99817.38
2023-04-21T00:29:31.949Z,99796.66
2023-04-21T00:32:00.986Z,99813.72
2023-04-21T00:34:31.723Z,99809.06
2023-04-21T00:36:59.540Z,99800.53
2023-04-21T00:39:28.292Z,99798.94
2023-04-21T00:41:56.179Z,99789.28
2023-04-21T00:44:24.999Z,99805.22
2023-04-21T00:46:52.868Z,99749.13
2023-04-21T00:49:25.799Z,99789.66
2023-04-21T00:51:54.889Z,99760.75
2023-04-21T00:54:24.884Z,99792.06
2023-04-21T00:56:55.524Z,99781.31
2023-04-21T00:59:23.415Z,99761.38
2023-04-21T01:01:53.126Z,99708.84
2023-04-21T01:04:22.465Z,99791.25
2023-04-21T01:06:52.502Z,99773.25
2023-04-21T01:09:21.928Z,99792.53
2023-04-21T01:12:10.538Z,99788.06
2023-04-21T01:14:40.124Z,99755.63
2023-04-21T01:17:08.907Z,99779.41
2023-04-21T01:19:42.603Z,99758.66
2023-04-21T01:22:12.582Z,99740.03
2023-04-21T01:24:41.890Z,99781.63
2023-04-21T01:27:15.242Z,99781.31
2023-04-21T01:29:43.835Z,99697.28
2023-04-21T01:32:14.633Z,99772.94
2023-04-21T01:34:43.207Z,99772.94
2023-04-21T01:37:14.412Z,99769.09
2023-04-21T01:39:45.261Z,99780.00
2023-04-21T01:42:13.609Z,99771.53
2023-04-21T01:44:42.902Z,99775.88
2023-04-21T01:47:11.594Z,99773.72
2023-04-21T01:49:40.674Z,99775.19
2023-04-21T01:52:08.725Z,99692.16
2023-04-21T01:54:37.691Z,99757.03
2023-04-21T01:57:07.058Z,99763.00
2023-04-21T01:59:34.978Z,99776.28
2023-04-21T02:02:04.029Z,99764.84
2023-04-21T02:04:34.647Z,99736.72
2023-04-21T02:07:02.796Z,99751.50
2023-04-21T02:09:31.352Z,99766.31
2023-04-21T02:11:59.247Z,99766.84
2023-04-21T02:14:28.258Z,99763.59
2023-04-21T02:16:56.477Z,99726.66
2023-04-21T02:19:24.739Z,99718.94
2023-04-21T02:21:52.456Z,99757.03
2023-04-21T02:24:22.859Z,99750.63
2023-04-21T02:26:50.580Z,99611.34
2023-04-21T02:29:18.576Z,99738.13
2023-04-21T02:31:58.776Z,99746.28
2023-04-21T02:34:28.953Z,99694.88
2023-04-21T02:36:56.909Z,99720.06
2023-04-21T02:39:24.703Z,99690.06
2023-04-21T02:41:52.485Z,99605.88
2023-04-21T02:44:21.803Z,99757.53
2023-04-21T02:46:49.593Z,99728.59
2023-04-21T02:49:17.692Z,99716.75
2023-04-21T02:51:45.727Z,99711.41
2023-04-21T02:54:13.720Z,99742.41
2023-04-21T02:56:41.411Z,99764.41
2023-04-21T02:59:09.126Z,99761.03
2023-04-21T03:01:36.766Z,99670.88
2023-04-21T03:04:04.971Z,99728.75
2023-04-21T03:06:33.895Z,99733.09
2023-04-21T03:09:01.701Z,99703.34
2023-04-21T03:11:29.964Z,99715.25
2023-04-21T03:13:57.763Z,99757.22
2023-04-21T03:16:25.570Z,99739.22
2023-04-21T03:18:53.671Z,99702.78
2023-04-21T03:21:21.510Z,99679.88
2023-04-21T03:23:49.293Z,99752.69
2023-04-21T03:26:17.058Z,99754.31
2023-04-21T03:28:44.925Z,99756.22
2023-04-21T03:31:14.108Z,99703.88
2023-04-21T03:33:41.956Z,99732.00
2023-04-21T03:36:09.926Z,99727.19
2023-04-21T03:38:39.304Z,99753.69
2023-04-21T03:41:08.233Z,99735.72
2023-04-21T03:43:36.644Z,99715.97
2023-04-21T03:46:04.718Z,99737.47
2023-04-21T03:48:32.432Z,99712.09
2023-04-21T03:51:00.145Z,99733.78
2023-04-21T03:53:28.260Z,99720.75
2023-04-21T03:55:55.927Z,99743.41
2023-04-21T03:58:23.581Z,99680.09
2023-04-21T04:00:51.360Z,99702.41
2023-04-21T04:03:21.730Z,99740.97
2023-04-21T04:05:51.036Z,99679.56
2023-04-21T04:08:19.250Z,99746.28
2023-04-21T04:10:47.017Z,99683.78
2023-04-21T04:13:14.830Z,99742.44
2023-04-21T04:15:42.853Z,99664.31
2023-04-21T04:18:10.871Z,99727.47
2023-04-21T04:20:38.640Z,99730.06
2023-04-21T04:23:08.156Z,99713.69
2023-04-21T04:25:37.537Z,99701.75
2023-04-21T04:28:12.871Z,99741.09
2023-04-21T04:30:40.706Z,99739.03
2023-04-21T04:33:09.332Z,99718.47
2023-04-21T04:35:37.162Z,99737.75
2023-04-21T04:38:05.019Z,99743.88
2023-04-21T04:40:33.948Z,99750.97
2023-04-21T04:43:02.771Z,99744.53
2023-04-21T04:45:33.272Z,99740.31
2023-04-21T04:48:01.147Z,99715.94
2023-04-21T04:50:28.883Z,99758.81
2023-04-21T04:52:57.820Z,99735.19
2023-04-21T04:55:26.191Z,99732.44
2023-04-21T04:57:53.992Z,99746.91
2023-04-21T05:00:22.109Z,99746.91
2023-04-21T05:02:49.959Z,99726.50
2023-04-21T05:05:17.785Z,99749.50
2023-04-21T05:07:45.980Z,99722.47
2023-04-21T05:10:14.101Z,99739.66
2023-04-21T05:12:41.941Z,99771.13
2023-04-21T05:15:10.902Z,99758.78
2023-04-21T05:17:38.731Z,99753.16
2023-04-21T05:20:08.431Z,99769.03
2023-04-21T05:22:41.171Z,99773.88
2023-04-21T05:25:12.802Z,99742.72
2023-04-21T05:27:44.346Z,99761.69
2023-04-21T05:30:12.429Z,99775.31
2023-04-21T05:32:40.368Z,99765.41
2023-04-21T05:35:08.483Z,99771.03
2023-04-21T05:37:36.534Z,99739.50
2023-04-21T05:40:04.524Z,99780.31
2023-04-21T05:42:32.313Z,99727.47
2023-04-21T05:45:00.385Z,99768.00
2023-04-21T05:47:28.068Z,99781.00
2023-04-21T05:49:55.902Z,99758.38
2023-04-21T05:52:23.760Z,99766.88
2023-04-21T05:54:51.590Z,99755.31
2023-04-21T05:57:19.607Z,99773.78
2023-04-21T05:59:47.775Z,99756.44
2023-04-21T06:02:15.943Z,99784.38
2023-04-21T06:04:48.975Z,99742.78
2023-04-21T06:07:20.456Z,99749.19
2023-04-21T06:09:52.614Z,99755.97
2023-04-21T06:12:20.619Z,99727.53
2023-04-21T06:14:48.585Z,99759.66
2023-04-21T06:17:18.104Z,99768.31
2023-04-21T06:19:45.977Z,99787.91
2023-04-21T06:22:16.804Z,99767.03
2023-04-21T06:24:44.536Z,99727.78
2023-04-21T06:27:16.185Z,99793.81
2023-04-21T06:29:44.496Z,99785.97
2023-04-21T06:32:12.842Z,99793.03
2023-04-21T06:34:40.606Z,99740.28
2023-04-21T06:37:08.476Z,99761.84
2023-04-21T06:39:36.202Z,99757.63
2023-04-21T06:42:04.213Z,99763.75
2023-04-21T06:44:32.583Z,99747.19
2023-04-21T06:47:00.372Z,99796.69
2023-04-21T06:49:28.466Z,99799.72
2023-04-21T06:51:56.575Z,99789.25
2023-04-21T06:54:24.300Z,99772.41
2023-04-21T06:56:52.504Z,99773.69
2023-04-21T06:59:20.727Z,99807.91
2023-04-21T07:01:52.606Z,99805.97
2023-04-21T07:04:22.178Z,99800.22
2023-04-21T07:06:50.107Z,99770.50
2023-04-21T07:09:18.537Z,99800.22
2023-04-21T07:11:46.725Z,99801.66
2023-04-21T07:14:14.592Z,99792.16
2023-04-21T07:16:42.471Z,99799.41
2023-04-21T07:19:10.476Z,99811.63
2023-04-21T07:21:38.263Z,99796.28
2023-04-21T07:24:06.270Z,99740.13
2023-04-21T07:26:34.497Z,99793.34
2023-04-21T07:29:02.241Z,99738.69
2023-04-21T07:31:30.025Z,99745.94
2023-04-21T07:33:58.974Z,99808.25
2023-04-21T07:36:30.553Z,99807.44
2023-04-21T07:38:58.874Z,99770.97
2023-04-21T07:41:27.169Z,99801.81
2023-04-21T07:43:55.662Z,99816.91
2023-04-21T07:46:26.129Z,99799.25
2023-04-21T07:48:53.920Z,99805.50
2023-04-21T07:51:21.992Z,99756.31
2023-04-21T07:53:50.770Z,99702.88
2023-04-21T07:56:18.734Z,99799.53
2023-04-21T07:58:46.716Z,99822.66
2023-04-21T08:01:15.858Z,99768.19
2023-04-21T08:03:44.043Z,99797.28
2023-04-21T08:06:12.360Z,99813.50
2023-04-21T08:08:40.252Z,99821.56
2023-04-21T08:11:09.766Z,99789.13
2023-04-21T08:13:38.864Z,99801.00
2023-04-21T08:16:06.888Z,99826.56
2023-04-21T08:18:34.895Z,99745.59
2023-04-21T08:21:02.707Z,99829.63
2023-04-21T08:23:33.153Z,99824.31
2023-04-21T08:26:03.914Z,99792.97
2023-04-21T08:28:31.607Z,99817.19
2023-04-21T08:31:00.615Z,99796.28
2023-04-21T08:33:28.749Z,99839.53
2023-04-21T08:36:05.584Z,99790.69
2023-04-21T08:38:35.780Z,99840.47
2023-04-21T08:41:04.559Z,99794.22
2023-04-21T08:43:33.682Z,99808.19
2023-04-21T08:46:06.427Z,99851.91
2023-04-21T08:48:39.454Z,99827.91
2023-04-21T08:51:12.066Z,99859.91
2023-04-21T08:53:41.483Z,99857.63
2023-04-21T08:56:11.664Z,99844.13
2023-04-21T08:58:39.714Z,99855.72
2023-04-21T09:01:07.869Z,99827.88
2023-04-21T09:03:35.830Z,99877.28
2023-04-21T09:06:09.412Z,99862.31
2023-04-21T09:08:42.287Z,99832.22
2023-04-21T09:11:14.394Z,99888.50
2023-04-21T09:13:43.383Z,99881.72
2023-04-21T09:16:22.529Z,99889.94
2023-04-21T09:18:51.727Z,99868.84
2023-04-21T09:21:20.607Z,99892.34
2023-04-21T09:23:52.777Z,99830.13
2023-04-21T09:26:24.761Z,99890.59
2023-04-21T09:28:53.419Z,99879.31
2023-04-21T09:31:26.133Z,99738.72
2023-04-21T09:33:59.576Z,99835.44
2023-04-21T09:36:31.100Z,99896.84
2023-04-21T09:41:34.783Z,99876.94
2023-04-21T09:44:05.507Z,99853.38
2023-04-21T09:46:36.121Z,99891.34
2023-04-21T09:49:04.989Z,99850.19
2023-04-21T09:54:28.555Z,99881.72
2023-04-21T09:57:04.923Z,99911.94
2023-04-21T09:59:36.564Z,99903.59
2023-04-21T10:02:06.255Z,99885.22
2023-04-21T10:04:36.568Z,99914.31
2023-04-21T10:07:05.535Z,99885.38
2023-04-21T10:09:46.868Z,99907.91
2023-04-21T10:12:16.049Z,99910.91
2023-04-21T10:14:44.216Z,99891.50
2023-04-21T10:17:12.283Z,99893.28
2023-04-21T10:19:49.785Z,99879.44
2023-04-21T10:22:30.723Z,99905.81
2023-04-21T10:25:00.450Z,99892.34
2023-04-21T10:27:36.239Z,99927.19
2023-04-21T10:30:22.523Z,99913.72
2023-04-21T10:33:05.033Z,99910.47
2023-04-21T10:35:57.999Z,99913.06
2023-04-21T10:38:41.070Z,99887.00
2023-04-21T10:41:28.328Z,99909.22
2023-04-21T10:44:14.630Z,99917.56
2023-04-21T10:46:48.556Z,99906.34
2023-04-21T10:49:26.702Z,99916.94
2023-04-21T10:52:05.610Z,99910.03
2023-04-21T10:54:42.212Z,99904.88
2023-04-21T10:57:12.248Z,99907.94
2023-04-21T10:59:40.978Z,99903.09
2023-04-21T11:02:14.353Z,99907.31
2023-04-21T11:04:48.429Z,99862.13
2023-04-21T11:07:23.242Z,99899.91
2023-04-21T11:10:08.378Z,99913.88
2023-04-21T11:12:41.035Z,99911.97
2023-04-21T11:15:11.344Z,99919.22
2023-04-21T11:17:43.994Z,99918.41
2023-04-21T11:20:11.979Z,99903.44
2023-04-21T11:22:40.215Z,99914.72
2023-04-21T11:25:18.597Z,99913.44
2023-04-21T11:27:57.236Z,99908.09
2023-04-21T11:30:35.644Z,99899.91
2023-04-21T11:33:03.666Z,99930.28
2023-04-21T11:35:32.205Z,99917.75
2023-04-21T11:38:06.081Z,99894.59
2023-04-21T11:40:50.022Z,99913.44
2023-04-21T11:43:18.371Z,99910.22
2023-04-21T11:45:50.065Z,99902.81
2023-04-21T11:48:19.795Z,99909.91
2023-04-21T11:50:49.859Z,99888.84
2023-04-21T11:53:20.239Z,99870.19
2023-04-21T11:55:48.149Z,99879.84
2023-04-21T11:58:18.128Z,99901.69
2023-04-21T12:00:46.696Z,99876.25
2023-04-21T12:03:15.065Z,99895.09
2023-04-21T12:05:45.699Z,99916.97
2023-04-21T12:08:16.302Z,99876.59
2023-04-21T12:10:50.949Z,99877.72
2023-04-21T12:13:28.786Z,99908.44
2023-04-21T12:15:59.390Z,99913.44
2023-04-21T12:18:32.748Z,99913.91
2023-04-21T12:21:03.598Z,99888.84
2023-04-21T12:23:31.522Z,99877.13
2023-04-21T12:25:59.821Z,99884.53
2023-04-21T12:28:29.678Z,99842.13
2023-04-21T12:30:57.395Z,99867.16
2023-04-21T12:33:25.350Z,99848.84
2023-04-21T12:35:53.354Z,99860.09
2023-04-21T12:38:21.789Z,99891.59
2023-04-21T12:40:49.691Z,99860.56
2023-04-21T12:43:17.500Z,99896.94
2023-04-21T12:45:49.168Z,99906.53
2023-04-21T12:48:19.760Z,99877.94
2023-04-21T12:50:47.855Z,99907.53
2023-04-21T12:53:15.967Z,99899.94
2023-04-21T12:55:56.847Z,99891.75
2023-04-21T12:58:31.759Z,99862.03
2023-04-21T13:00:59.814Z,99847.91
2023-04-21T13:03:28.845Z,99859.50
2023-04-21T13:05:58.259Z,99868.16
2023-04-21T13:08:26.651Z,99896.97
2023-04-21T13:10:56.587Z,99875.22
2023-04-21T13:13:26.776Z,99876.84
2023-04-21T13:15:55.444Z,99905.97
2023-04-21T13:18:23.576Z,99897.09
2023-04-21T13:20:51.732Z,99855.78
2023-04-21T13:23:19.657Z,99895.47
2023-04-21T13:25:47.388Z,99901.59
2023-04-21T13:28:15.284Z,99875.56
2023-04-21T13:30:43.294Z,99855.47
2023-04-21T13:33:12.009Z,99879.41
2023-04-21T13:35:39.876Z,99860.13
2023-04-21T13:38:07.901Z,99869.31
2023-04-21T13:40:35.815Z,99867.72
2023-04-21T13:43:04.038Z,99859.81
2023-04-21T13:45:31.906Z,99843.63
2023-04-21T13:48:00.184Z,99832.69
2023-04-21T13:50:28.129Z,99846.19
2023-04-21T13:52:56.024Z,99839.75
2023-04-21T13:55:37.903Z,99788.69
2023-04-21T13:58:06.920Z,99869.66
2023-04-21T14:00:35.123Z,99872.41
2023-04-21T14:03:03.502Z,99674.69
2023-04-21T14:05:31.843Z,99803.63
2023-04-21T14:08:00.627Z,99775.84
2023-04-21T14:10:28.943Z,99849.53
2023-04-21T14:12:57.061Z,99804.25
2023-04-21T14:15:26.592Z,99721.06
2023-04-21T14:17:54.724Z,99754.81
2023-04-21T14:20:23.092Z,99705.47
2023-04-21T14:22:51.261Z,99796.88
2023-04-21T14:25:20.968Z,99696.63
2023-04-21T14:27:49.196Z,99727.16
2023-04-21T14:30:17.201Z,99793.97
2023-04-21T14:32:45.897Z,99666.38
2023-04-21T14:35:14.625Z,99624.56
2023-04-21T14:37:42.906Z,99635.06
2023-04-21T14:40:11.304Z,99897.88
2023-04-21T14:42:39.267Z,99813.53
2023-04-21T14:45:08.273Z,99644.44
2023-04-21T14:47:40.380Z,99843.59
2023-04-21T14:50:09.026Z,99776.91
2023-04-21T14:52:40.044Z,99869.13
2023-04-21T14:55:08.403Z,99870.44
2023-04-21T14:57:36.368Z,99854.06
2023-04-21T15:00:06.182Z,99846.47
2023-04-21T15:02:34.379Z,99850.66
2023-04-21T15:05:02.279Z,99823.03
2023-04-21T15:07:30.080Z,99845.34
2023-04-21T15:10:00.943Z,99828.19
2023-04-21T15:12:29.871Z,99848.09
2023-04-21T15:14:57.737Z,99669.16
2023-04-21T15:17:25.656Z,99849.84
2023-04-21T15:19:53.540Z,99871.56
2023-04-21T15:22:21.628Z,99876.19
2023-04-21T15:24:52.222Z,99862.25
2023-04-21T15:27:23.437Z,99817.56
2023-04-21T15:29:51.350Z,99853.72
2023-04-21T15:32:19.762Z,99859.97
2023-04-21T15:34:47.691Z,99720.81
2023-04-21T15:37:17.878Z,99858.69
2023-04-21T15:39:45.747Z,99737.19
2023-04-21T15:42:14.886Z,99760.16
2023-04-21T15:44:42.861Z,99708.63
2023-04-21T15:47:10.656Z,99793.00
2023-04-21T15:49:38.631Z,99838.75
2023-04-21T15:52:07.230Z,99853.72
2023-04-21T15:54:35.857Z,99836.53
2023-04-21T15:57:04.185Z,99845.66
2023-04-21T15:59:32.445Z,99825.09
2023-04-21T16:02:00.515Z,99853.06
2023-04-21T16:04:28.717Z,99832.97
2023-04-21T16:06:56.700Z,99856.59
2023-04-21T16:09:24.477Z,99801.31
2023-04-21T16:11:52.298Z,99794.72
2023-04-21T16:14:21.511Z,99864.13
2023-04-21T16:16:50.535Z,99870.72
2023-04-21T16:19:18.725Z,99870.44
2023-04-21T16:21:46.730Z,99811.44
2023-04-21T16:24:14.976Z,99875.38
2023-04-21T16:26:42.876Z,99828.31
2023-04-21T16:29:11.973Z,99843.09
2023-04-21T16:31:39.887Z,99868.97
2023-04-21T16:34:07.930Z,99703.03
2023-04-21T16:36:36.073Z,99731.59
2023-04-21T16:39:03.965Z,99858.19
2023-04-21T16:41:32.877Z,99709.44
2023-04-21T16:44:00.951Z,99702.06
2023-04-21T16:46:28.776Z,99713.78
2023-04-21T16:48:56.687Z,99865.09
2023-04-21T16:51:26.218Z,99624.97
2023-04-21T16:53:54.948Z,99821.75
2023-04-21T16:56:24.451Z,99842.94
2023-04-21T16:58:53.471Z,99859.81
2023-04-21T17:01:21.611Z,99844.88
2023-04-21T17:03:49.676Z,99816.59
2023-04-21T17:06:21.603Z,99841.47
2023-04-21T17:08:49.476Z,99779.81
2023-04-21T17:11:17.454Z,99822.22
2023-04-21T17:13:45.339Z,99834.59
2023-04-21T17:16:14.093Z,99843.59
2023-04-21T17:18:41.914Z,99835.34
2023-04-21T17:21:09.780Z,99809.03
2023-04-21T17:23:37.627Z,99795.06
2023-04-21T17:26:06.720Z,99855.31
2023-04-21T17:28:35.229Z,99781.50
2023-04-21T17:31:14.568Z,99802.91
2023-04-21T17:33:44.685Z,99846.91
2023-04-21T17:36:12.690Z,99834.53
2023-04-21T17:38:42.822Z,99796.97
2023-04-21T17:41:10.880Z,99864.28
2023-04-21T17:43:38.778Z,99859.44
2023-04-21T17:46:10.363Z,99792.09
2023-04-21T17:48:39.776Z,99850.91
2023-04-21T17:51:07.683Z,99859.28
2023-04-21T17:53:36.062Z,99769.75
2023-04-21T17:56:04.125Z,99721.88
2023-04-21T17:58:32.105Z,99674.25
2023-04-21T18:00:59.899Z,99644.06
2023-04-21T18:03:28.623Z,99744.69
2023-04-21T18:05:56.671Z,99657.91
2023-04-21T18:08:25.112Z,99897.34
2023-04-21T18:10:54.907Z,99640.50
2023-04-21T18:13:22.740Z,99709.22
2023-04-21T18:15:50.876Z,99899.91
2023-04-21T18:18:18.859Z,99743.34
2023-04-21T18:20:47.203Z,99837.81
2023-04-21T18:23:31.113Z,99835.72
2023-04-21T18:26:00.002Z,99637.84
2023-04-21T18:28:29.777Z,99773.19
2023-04-21T18:31:01.213Z,99926.84
2023-04-21T18:33:29.628Z,99658.59
2023-04-21T18:35:58.247Z,99702.06
2023-04-21T18:38:26.730Z,99765.94
2023-04-21T18:41:07.908Z,99630.78
2023-04-21T18:43:37.683Z,99841.09
2023-04-21T18:46:06.919Z,99783.72
2023-04-21T18:48:34.918Z,99899.72
2023-04-21T18:51:03.005Z,99834.25
2023-04-21T18:53:31.315Z,99883.94
2023-04-21T18:55:59.265Z,99668.72
2023-04-21T18:58:27.362Z,99859.16
2023-04-21T19:00:56.266Z,99694.63
2023-04-21T19:03:25.549Z,99845.50
2023-04-21T19:05:53.775Z,99878.22
2023-04-21T19:08:38.258Z,99692.16
2023-04-21T19:11:14.411Z,99790.81
2023-04-21T19:13:42.818Z,99813.69
2023-04-21T19:16:12.475Z,99692.22
2023-04-21T19:18:46.101Z,99762.69
2023-04-21T19:21:15.704Z,99636.00
2023-04-21T19:23:46.628Z,99858.22
2023-04-21T19:26:22.040Z,99882.63
2023-04-21T19:28:49.950Z,99756.34
2023-04-21T19:31:23.465Z,99954.25
2023-04-21T19:33:52.765Z,99871.53
2023-04-21T19:36:24.289Z,99770.66
2023-04-21T19:38:55.751Z,99861.09
2023-04-21T19:41:24.603Z,99966.91
2023-04-21T19:43:52.961Z,99822.81
2023-04-21T19:46:21.859Z,99954.09
2023-04-21T19:48:50.435Z,99942.97
2023-04-21T19:51:19.141Z,99740.50
2023-04-21T19:53:51.404Z,99845.84
2023-04-21T19:56:33.201Z,99818.78
2023-04-21T19:59:06.870Z,99873.09
2023-04-21T20:01:36.215Z,99842.66
2023-04-21T20:04:09.265Z,99834.00
2023-04-21T20:06:40.305Z,99808.16
2023-04-21T20:09:19.220Z,99906.38
2023-04-21T20:11:57.527Z,99933.63
2023-04-21T20:14:35.074Z,99920.22
2023-04-21T20:17:04.599Z,99764.69
2023-04-21T20:19:32.583Z,99865.22
2023-04-21T20:22:03.993Z,100015.56
2023-04-21T20:24:35.933Z,99754.16
2023-04-21T20:27:05.352Z,100021.72
2023-04-21T20:29:40.603Z,99937.75
2023-04-21T20:32:15.847Z,99877.19
2023-04-21T20:34:46.779Z,99817.38
2023-04-21T20:37:15.358Z,100012.06
2023-04-21T20:39:43.315Z,99981.16
2023-04-21T20:42:13.519Z,100018.41
2023-04-21T20:44:43.619Z,100004.94
2023-04-21T20:47:12.302Z,100007.78
2023-04-21T20:49:41.564Z,99934.72
2023-04-21T20:52:09.620Z,100006.47
2023-04-21T20:54:40.212Z,99783.63
2023-04-21T20:57:09.183Z,100029.66
2023-04-21T20:59:37.591Z,99895.03
2023-04-21T21:02:06.198Z,99753.38
2023-04-21T21:04:34.284Z,100032.38
2023-04-21T21:07:02.214Z,100036.72
2023-04-21T21:09:31.733Z,99994.56
2023-04-21T21:11:59.809Z,99980.88
2023-04-21T21:14:27.665Z,99971.06
2023-04-21T21:16:56.593Z,100021.25
2023-04-21T21:19:25.147Z,99974.59
2023-04-21T21:21:55.550Z,100014.00
2023-04-21T21:24:23.514Z,99960.91
2023-04-21T21:26:51.477Z,99928.16
2023-04-21T21:29:19.744Z,99833.84
2023-04-21T21:31:47.728Z,99862.63
2023-04-21T21:34:18.115Z,99901.22
2023-04-21T21:36:46.064Z,99955.56
2023-04-21T21:39:15.209Z,99965.72
2023-04-21T21:41:43.907Z,99968.97
2023-04-21T21:44:11.783Z,99835.47
2023-04-21T21:46:43.737Z,99969.75
2023-04-21T21:49:11.794Z,99846.94
2023-04-21T21:51:39.745Z,99868.13
2023-04-21T21:54:07.852Z,99832.34
2023-04-21T21:56:39.852Z,99856.28
2023-04-21T21:59:10.132Z,99873.72
2023-04-21T22:01:39.467Z,99895.78
2023-04-21T22:04:07.744Z,99913.47
2023-04-21T22:06:36.360Z,100066.97
2023-04-21T22:09:05.480Z,100046.34
2023-04-21T22:11:33.754Z,99920.66
2023-04-21T22:14:14.511Z,99948.28
2023-04-21T22:16:51.222Z,100082.22
2023-04-21T22:19:19.605Z,99995.06
2023-04-21T22:21:47.927Z,99867.53
2023-04-21T22:24:15.955Z,99995.59
2023-04-21T22:26:44.937Z,99941.22
2023-04-21T22:29:13.176Z,99995.59
2023-04-21T22:31:42.635Z,99830.88
2023-04-21T22:34:13.132Z,99928.28
2023-04-21T22:36:41.392Z,99805.47
2023-04-21T22:39:09.655Z,99923.41
2023-04-21T22:41:38.825Z,99842.16
2023-04-21T22:44:06.730Z,100064.50
2023-04-21T22:46:34.912Z,100050.78
2023-04-21T22:49:04.162Z,99970.09
2023-04-21T22:51:35.676Z,100076.16
2023-04-21T22:54:03.874Z,99853.25
2023-04-21T22:56:33.029Z,100040.78
2023-04-21T22:59:01.088Z,99981.16
2023-04-21T23:01:29.455Z,100114.97
2023-04-21T23:03:57.788Z,99835.09
2023-04-21T23:06:25.830Z,99988.38
2023-04-21T23:08:53.771Z,100011.63
2023-04-21T23:11:21.806Z,100079.25
2023-04-21T23:13:49.954Z,99958.31
2023-04-21T23:16:19.834Z,100060.41
2023-04-21T23:18:47.787Z,100012.88
2023-04-21T23:21:15.717Z,99930.69
2023-04-21T23:23:43.548Z,99937.81
2023-04-21T23:26:15.835Z,100057.97
2023-04-21T23:28:43.643Z,99883.16
2023-04-21T23:31:14.186Z,99878.22
2023-04-21T23:33:42.626Z,99953.84
2023-04-21T23:36:10.656Z,100010.59
2023-04-21T23:38:38.693Z,99871.47
2023-04-21T23:41:08.329Z,100038.06
2023-04-21T23:43:37.496Z,100044.03
2023-04-21T23:46:05.468Z,99883.41
2023-04-21T23:48:34.411Z,99928.78
2023-04-21T23:51:02.927Z,99837.59
2023-04-21T23:53:30.885Z,100043.97
2023-04-21T23:55:59.023Z,99954.84
2023-04-21T23:58:27.193Z,100057.31
